UTTT

Tashkent International Airport

Tashkent, Uzbekistan
TAF UTTT 210500Z 2106/2206 17008KT 7000 NSC TEMPO 2108/2114 28010G20KT
Issued Valid From Valid To
Apr-21 @ 05:00 UTC
(5 hours ago)
Apr-21 @ 06:00 UTC
(4 hours ago)
Apr-22 @ 06:00 UTC
(in 20 hours)
Apr-21 @ 06:00 to Apr-22 @ 06:00
TAF UTTT 210500Z 2106/2206 17008KT 7000 NSC
Wind Visibility Clouds
170° at 8 knots 7,001 meters
  • No significant clouds
Temporary Apr-21 @ 08:00 to Apr-21 @ 14:00
TEMPO 2108/2114 28010G20KT
Wind
280° at 10 knots
 Gusting to 20 knots
TAF UTTT 210500Z 2106/2206 17008KT 7000 NSC TEMPO 2108/2114 28010G20KT
Issued Apr-21 @ 05:00 UTC
(5 hours ago)
Valid From Apr-21 @ 06:00 UTC
(4 hours ago)
Valid To Apr-22 @ 06:00 UTC
(in 20 hours)
Apr-21 @ 06:00 - Apr-22 @ 06:00
Wind Visibility
170° at 8 knots 7,001 meters
Clouds
  • No significant clouds
Temporary Apr-21 @ 08:00 - Apr-21 @ 14:00
Wind
280° at 10 knots
 Gusting to 20 knots